Time;durP1;ratioP1;P1;durP2;ratioP2;P2;SDS_P1;SDS_P2;PMS_P1;PMS_P2;Temp;Humidity;BMP_temperature;BMP_pressure;BME280_temperature;BME280_humidity;BME280_pressure;Samples;Min_cycle;Max_cycle;Signal;HPM_P1;HPM_P2
2023/09/23 00:01:06;;;;;;;14.43;5.30;;;588.90;2432.00;;;;;;4832069;29;20023;-82
2023/09/23 00:03:33;;;;;;;16.55;5.65;;;564.10;2432.00;;;;;;4830546;29;20042;-83
2023/09/23 00:06:00;;;;;;;13.80;5.50;;;564.00;2432.00;;;;;;4828801;29;20037;-82
2023/09/23 00:08:27;;;;;;;14.10;5.60;;;563.90;2432.00;;;;;;4834890;29;20041;-83
2023/09/23 00:10:53;;;;;;;17.35;5.20;;;563.70;2432.00;;;;;;4828853;29;20038;-85
2023/09/23 00:13:22;;;;;;;19.02;5.13;;;563.70;2432.00;;;;;;4826476;29;20038;-86
2023/09/23 00:15:52;;;;;;;11.85;5.47;;;563.70;2432.00;;;;;;4826989;29;20046;-85
2023/09/23 00:18:18;;;;;;;15.23;5.45;;;563.70;2432.00;;;;;;4826286;29;20042;-85
2023/09/23 00:20:46;;;;;;;20.85;6.20;;;563.80;2432.00;;;;;;4826780;29;20790;-86
2023/09/23 00:23:13;;;;;;;15.23;5.90;;;563.90;2432.00;;;;;;4822694;29;20031;-84
2023/09/23 00:26:00;;;;;;;15.40;4.97;;;564.00;2432.00;;;;;;4826246;29;20126;-85
2023/09/23 00:28:30;;;;;;;14.45;5.40;;;564.00;2432.00;;;;;;4827301;29;20030;-83
2023/09/23 00:31:14;;;;;;;12.93;5.90;;;564.10;2432.00;;;;;;4827416;29;20069;-82
2023/09/23 00:33:41;;;;;;;14.13;5.53;;;564.10;2432.00;;;;;;4825040;29;20083;-84
2023/09/23 00:36:09;;;;;;;16.83;5.57;;;564.00;2432.00;;;;;;4824633;29;20119;-84
2023/09/23 00:38:38;;;;;;;14.05;5.80;;;589.10;2432.00;;;;;;4825137;29;20473;-85
2023/09/23 00:41:06;;;;;;;14.35;5.22;;;588.80;2432.00;;;;;;4821144;29;20045;-84
2023/09/23 00:43:35;;;;;;;13.90;5.72;;;588.80;2432.00;;;;;;4825578;29;20038;-84
2023/09/23 00:46:05;;;;;;;17.05;5.78;;;588.90;2432.00;;;;;;4821292;29;20042;-84
2023/09/23 00:48:39;;;;;;;20.35;5.82;;;588.90;2432.00;;;;;;4825811;29;20059;-83
2023/09/23 00:51:07;;;;;;;15.20;5.57;;;588.80;2432.00;;;;;;4830778;29;20049;-83
2023/09/23 00:53:35;;;;;;;14.93;4.95;;;588.80;2432.00;;;;;;4826665;29;20278;-82
2023/09/23 00:56:21;;;;;;;16.52;5.68;;;588.80;2432.00;;;;;;4828221;29;20042;-84
2023/09/23 00:58:46;;;;;;;17.08;5.32;;;588.80;2432.00;;;;;;4827727;29;20054;-84
2023/09/23 01:01:14;;;;;;;16.70;5.30;;;588.90;2432.00;;;;;;4829092;29;20105;-83
2023/09/23 01:03:42;;;;;;;14.85;5.45;;;588.80;2432.00;;;;;;4826229;29;20491;-84
2023/09/23 01:06:21;;;;;;;12.63;5.32;;;588.80;2432.00;;;;;;4830885;29;20399;-84
2023/09/23 01:08:54;;;;;;;16.65;5.65;;;588.80;2432.00;;;;;;4831805;29;20036;-84
2023/09/23 01:11:20;;;;;;;18.63;6.43;;;588.80;2432.00;;;;;;4830696;29;20057;-83
2023/09/23 01:13:52;;;;;;;17.67;6.15;;;564.10;2432.00;;;;;;4832671;29;20034;-84
2023/09/23 01:16:21;;;;;;;19.52;5.82;;;564.00;2432.00;;;;;;4831707;29;20059;-84
2023/09/23 01:18:49;;;;;;;19.73;5.32;;;563.90;2432.00;;;;;;4835615;29;20046;-84
2023/09/23 01:21:26;;;;;;;17.88;5.85;;;563.90;2432.00;;;;;;4837917;29;20090;-84
2023/09/23 01:23:55;;;;;;;13.68;6.00;;;564.00;2432.00;;;;;;4821400;29;20053;-82
2023/09/23 01:26:26;;;;;;;14.15;4.97;;;564.10;2432.00;;;;;;4835972;29;20038;-85
2023/09/23 01:28:56;;;;;;;13.43;5.18;;;564.10;2432.00;;;;;;4832777;29;20140;-81
2023/09/23 01:31:25;;;;;;;13.20;5.43;;;588.90;2432.00;;;;;;4834755;29;20461;-81
2023/09/23 01:33:55;;;;;;;18.15;5.88;;;563.70;2432.00;;;;;;4834730;29;20064;-83
2023/09/23 01:36:29;;;;;;;14.00;5.97;;;588.80;2432.00;;;;;;4834858;29;20023;-83
2023/09/23 01:38:55;;;;;;;16.17;5.80;;;564.10;2432.00;;;;;;4837617;29;20054;-84
2023/09/23 01:41:34;;;;;;;16.73;5.68;;;588.80;2432.00;;;;;;4831977;29;20027;-85
2023/09/23 01:44:00;;;;;;;17.73;6.10;;;588.80;2432.00;;;;;;4826087;29;20049;-85
2023/09/23 01:46:26;;;;;;;18.73;6.05;;;588.80;2432.00;;;;;;4822186;29;20035;-86
2023/09/23 01:48:55;;;;;;;12.07;5.53;;;588.80;2432.00;;;;;;4828755;29;20163;-86
2023/09/23 01:51:41;;;;;;;15.70;5.97;;;588.80;2432.00;;;;;;4831510;29;20159;-86
2023/09/23 01:54:07;;;;;;;20.00;7.60;;;564.10;2432.00;;;;;;4826421;29;20505;-87
2023/09/23 01:56:34;;;;;;;20.17;8.25;;;564.10;2432.00;;;;;;4827145;29;20046;-88
2023/09/23 01:58:59;;;;;;;16.05;6.80;;;564.10;2432.00;;;;;;4825360;29;20095;-87
2023/09/23 02:01:28;;;;;;;19.77;6.95;;;564.00;2432.00;;;;;;4825924;29;20030;-87
2023/09/23 02:03:54;;;;;;;18.80;6.00;;;564.00;2432.00;;;;;;4826583;29;20481;-88
2023/09/23 02:06:20;;;;;;;15.20;4.68;;;564.10;2432.00;;;;;;4707258;29;3550616;-86
2023/09/23 02:08:46;;;;;;;17.80;5.32;;;588.80;2432.00;;;;;;4825143;29;20053;-88
2023/09/23 02:11:12;;;;;;;16.23;5.07;;;588.90;2432.00;;;;;;4825401;29;20039;-87
2023/09/23 02:13:40;;;;;;;14.30;5.15;;;588.90;2432.00;;;;;;4826596;29;20093;-85
2023/09/23 02:16:06;;;;;;;13.40;5.05;;;588.90;2432.00;;;;;;4823601;29;20022;-85
2023/09/23 02:18:37;;;;;;;18.20;5.07;;;588.80;2432.00;;;;;;4825327;29;20129;-86
2023/09/23 02:21:02;;;;;;;17.33;5.20;;;564.00;2432.00;;;;;;4829106;29;20437;-87
2023/09/23 02:23:29;;;;;;;16.73;4.90;;;564.00;2432.00;;;;;;4828502;29;20049;-88
2023/09/23 02:25:55;;;;;;;12.23;4.97;;;564.00;2432.00;;;;;;4828364;29;20026;-87
2023/09/23 02:28:20;;;;;;;12.60;4.50;;;563.90;2432.00;;;;;;4827412;29;20467;-86
2023/09/23 02:30:46;;;;;;;12.18;4.63;;;563.70;2432.00;;;;;;4827916;29;20026;-87
2023/09/23 02:33:12;;;;;;;10.30;4.60;;;563.70;2432.00;;;;;;4828894;29;20068;-86
2023/09/23 02:35:38;;;;;;;13.32;4.40;;;563.80;2432.00;;;;;;4828406;29;20520;-85
2023/09/23 02:38:04;;;;;;;11.23;4.72;;;563.80;2432.00;;;;;;4827425;29;20039;-85
2023/09/23 02:40:29;;;;;;;12.20;4.53;;;563.80;2432.00;;;;;;4826891;29;20068;-86
2023/09/23 02:42:59;;;;;;;13.93;5.20;;;563.80;2432.00;;;;;;4827017;29;20091;-85
2023/09/23 02:45:27;;;;;;;12.48;4.30;;;563.80;2432.00;;;;;;4826350;29;20034;-86
2023/09/23 02:47:53;;;;;;;9.63;4.60;;;563.70;2432.00;;;;;;4825822;29;20491;-86
2023/09/23 02:50:20;;;;;;;11.15;4.90;;;563.70;2432.00;;;;;;4830521;29;20157;-86
2023/09/23 02:52:46;;;;;;;10.85;5.32;;;563.70;2432.00;;;;;;4827152;29;20034;-86
2023/09/23 02:55:14;;;;;;;11.05;4.35;;;563.70;2432.00;;;;;;4828737;29;20045;-86
2023/09/23 02:57:48;;;;;;;13.32;4.88;;;563.70;2432.00;;;;;;4828961;29;20034;-86
2023/09/23 03:00:16;;;;;;;16.70;4.78;;;563.60;2432.00;;;;;;4828225;29;20034;-87
2023/09/23 03:02:57;;;;;;;21.95;5.90;;;563.60;2432.00;;;;;;4826895;29;20079;-87
2023/09/23 03:05:38;;;;;;;15.52;4.85;;;563.60;2432.00;;;;;;4828616;29;20035;-86
2023/09/23 03:08:07;;;;;;;13.20;4.90;;;563.60;2432.00;;;;;;4826889;29;20115;-87
2023/09/23 03:10:39;;;;;;;10.90;4.85;;;563.50;2432.00;;;;;;4828410;29;20038;-86
2023/09/23 03:13:11;;;;;;;12.98;4.88;;;563.50;2432.00;;;;;;4828103;29;20039;-85
2023/09/23 03:15:41;;;;;;;11.48;4.63;;;563.50;2432.00;;;;;;4827533;29;20042;-87
2023/09/23 03:18:07;;;;;;;11.77;4.45;;;563.50;2432.00;;;;;;4824327;29;20027;-86
2023/09/23 03:20:37;;;;;;;13.07;4.53;;;563.50;2432.00;;;;;;4845519;29;20041;-85
2023/09/23 03:23:10;;;;;;;11.90;4.13;;;563.40;2432.00;;;;;;4833763;29;20051;-86
2023/09/23 03:25:48;;;;;;;11.88;4.57;;;563.40;2432.00;;;;;;4828919;29;20042;-86
2023/09/23 03:28:21;;;;;;;13.57;4.00;;;563.40;2432.00;;;;;;4828141;29;20030;-86
2023/09/23 03:30:49;;;;;;;12.63;4.45;;;563.30;2432.00;;;;;;4825992;29;20029;-86
2023/09/23 03:33:18;;;;;;;10.55;4.20;;;563.20;2432.00;;;;;;4827882;29;20038;-86
2023/09/23 03:35:44;;;;;;;12.50;4.40;;;538.50;2406.40;;;;;;4825915;29;20058;-85
2023/09/23 03:38:13;;;;;;;10.38;4.03;;;563.20;2432.00;;;;;;4840954;29;20062;-85
2023/09/23 03:41:02;;;;;;;11.23;4.57;;;563.30;2432.00;;;;;;4827685;29;20046;-87
2023/09/23 03:43:29;;;;;;;12.63;4.38;;;563.30;2432.00;;;;;;4827874;29;20105;-87
2023/09/23 03:45:55;;;;;;;13.55;4.93;;;563.50;2432.00;;;;;;4826337;29;20033;-87
2023/09/23 03:48:22;;;;;;;10.52;4.38;;;563.40;2432.00;;;;;;4827207;29;20042;-88
2023/09/23 03:50:52;;;;;;;14.07;4.90;;;563.30;2432.00;;;;;;4826376;29;20046;-86
2023/09/23 03:53:21;;;;;;;10.05;4.28;;;538.50;2406.40;;;;;;4826648;29;20044;-86
2023/09/23 03:55:54;;;;;;;14.25;4.50;;;538.40;2406.40;;;;;;4826732;29;20033;-85
2023/09/23 03:58:20;;;;;;;10.25;4.40;;;538.30;2406.40;;;;;;4820736;29;20087;-87
2023/09/23 04:00:46;;;;;;;12.57;5.13;;;538.30;2022.40;;;;;;4826675;29;20030;-87
2023/09/23 04:03:13;;;;;;;11.40;4.60;;;538.10;2406.40;;;;;;4839606;29;20029;-86
2023/09/23 04:05:39;;;;;;;15.75;4.40;;;538.20;2304.00;;;;;;4835071;29;20026;-85
2023/09/23 04:08:05;;;;;;;10.88;4.90;;;538.20;2406.40;;;;;;4827005;29;20042;-87
2023/09/23 04:10:35;;;;;;;14.90;5.07;;;537.90;2406.40;;;;;;4826732;29;20492;-86
2023/09/23 04:13:01;;;;;;;13.77;4.63;;;537.90;2406.40;;;;;;4824188;29;20564;-85
2023/09/23 04:15:28;;;;;;;13.07;4.63;;;537.90;2406.40;;;;;;4821025;29;20030;-87
2023/09/23 04:17:53;;;;;;;11.27;5.25;;;537.80;2406.40;;;;;;4807324;29;20052;-85
2023/09/23 04:20:19;;;;;;;12.82;5.32;;;537.80;2406.40;;;;;;4807933;29;20493;-85
2023/09/23 04:22:48;;;;;;;15.30;5.28;;;537.70;2406.40;;;;;;4810598;29;20030;-85
2023/09/23 04:25:14;;;;;;;11.88;4.88;;;537.70;2406.40;;;;;;4806986;29;20049;-84
2023/09/23 04:27:40;;;;;;;15.80;5.47;;;537.60;2406.40;;;;;;4807337;29;20026;-86
2023/09/23 04:30:11;;;;;;;12.63;4.68;;;537.70;2406.40;;;;;;4810138;29;20023;-87
2023/09/23 04:32:41;;;;;;;11.63;5.30;;;537.70;2406.40;;;;;;4826513;29;20569;-87
2023/09/23 04:35:15;;;;;;;13.60;5.00;;;537.70;2406.40;;;;;;4827622;29;20026;-87
2023/09/23 04:37:41;;;;;;;10.73;5.43;;;537.60;2406.40;;;;;;4826633;29;20030;-87
2023/09/23 04:40:12;;;;;;;11.90;5.25;;;537.80;2073.60;;;;;;4826009;29;20099;-87
2023/09/23 04:42:39;;;;;;;12.20;5.18;;;537.90;2406.40;;;;;;4826529;29;20068;-86
2023/09/23 04:45:05;;;;;;;12.93;5.82;;;537.80;2406.40;;;;;;4825948;29;20057;-84
2023/09/23 04:47:32;;;;;;;13.27;5.47;;;537.60;2406.40;;;;;;4825511;29;20034;-86
2023/09/23 04:49:59;;;;;;;12.23;5.63;;;537.80;2406.40;;;;;;4827433;29;20034;-86
2023/09/23 04:52:28;;;;;;;12.68;5.45;;;538.40;2406.40;;;;;;4827225;29;20026;-85
2023/09/23 04:54:54;;;;;;;15.13;6.32;;;;;;;;;;4808744;29;20035;-86
2023/09/23 04:57:21;;;;;;;16.10;6.03;;;;;;;;;;4817221;29;20037;-84
2023/09/23 04:59:47;;;;;;;15.40;6.90;;;;;;;;;;4826278;29;20050;-85
2023/09/23 05:02:13;;;;;;;15.00;6.10;;;;;;;;;;4826819;29;20064;-86
2023/09/23 05:04:40;;;;;;;12.25;5.35;;;;;;;;;;4826105;29;20034;-86
2023/09/23 05:07:06;;;;;;;18.48;6.43;;;;;;;;;;4825381;29;20054;-86
2023/09/23 05:09:37;;;;;;;16.63;5.93;;;;;;;;;;4825531;29;20469;-86
2023/09/23 05:12:03;;;;;;;17.17;5.78;;;;;;;;;;4826808;29;20102;-85
2023/09/23 05:14:29;;;;;;;12.32;6.60;;;;;;;;;;4825039;29;20042;-86
2023/09/23 05:16:55;;;;;;;16.25;6.35;;;;;;;;;;4825297;29;20056;-85
2023/09/23 05:19:21;;;;;;;14.45;5.93;;;;;;;;;;4826757;29;20042;-87
2023/09/23 05:21:49;;;;;;;16.85;6.53;;;;;;;;;;4826977;29;20050;-86
2023/09/23 05:24:16;;;;;;;15.40;6.40;;;;;;;;;;4835260;29;20092;-86
2023/09/23 05:26:43;;;;;;;14.38;6.00;;;;;;;;;;4825224;29;20026;-86
2023/09/23 05:29:09;;;;;;;14.48;6.03;;;;;;;;;;4838806;29;20038;-86
2023/09/23 05:31:36;;;;;;;11.68;5.32;;;;;;;;;;4840343;29;20028;-85
2023/09/23 05:34:06;;;;;;;14.40;6.03;;;;;;;;;;4825380;29;20069;-83
2023/09/23 05:36:32;;;;;;;12.55;5.63;;;;;;;;;;4825529;29;20036;-85
2023/09/23 05:38:59;;;;;;;13.00;4.68;;;;;;;;;;4825160;29;20791;-84
2023/09/23 05:41:25;;;;;;;13.75;4.93;;;;;;;;;;4825509;29;20054;-85
2023/09/23 05:43:52;;;;;;;11.13;4.95;;;;;;;;;;4823452;29;20450;-85
2023/09/23 05:46:21;;;;;;;12.68;4.68;;;;;;;;;;4825036;29;20034;-85
2023/09/23 05:48:48;;;;;;;9.85;4.70;;;;;;;;;;4825761;29;20121;-87
2023/09/23 05:51:15;;;;;;;10.32;3.90;;;538.10;2406.40;;;;;;4825594;29;20026;-85
2023/09/23 05:53:42;;;;;;;10.98;3.67;;;537.90;2406.40;;;;;;4825151;29;20030;-87
2023/09/23 05:56:39;;;;;;;12.40;3.60;;;537.80;2406.40;;;;;;4829187;29;20030;-86
2023/09/23 05:59:08;;;;;;;7.72;3.00;;;537.70;2406.40;;;;;;4824913;29;20050;-87
2023/09/23 06:01:33;;;;;;;8.80;2.97;;;537.70;2406.40;;;;;;4844562;29;20034;-85
2023/09/23 06:03:59;;;;;;;7.53;2.75;;;537.80;2406.40;;;;;;4833760;29;20038;-86
2023/09/23 06:06:25;;;;;;;11.18;4.15;;;537.90;2406.40;;;;;;4827167;29;20051;-86
2023/09/23 06:08:51;;;;;;;11.18;3.65;;;538.10;2406.40;;;;;;4826826;29;20070;-84
2023/09/23 06:11:17;;;;;;;6.72;1.90;;;538.40;2406.40;;;;;;4828322;29;20034;-86
2023/09/23 06:13:42;;;;;;;7.35;1.95;;;538.50;2406.40;;;;;;4828257;29;20035;-87
2023/09/23 06:16:09;;;;;;;6.30;2.75;;;538.40;2406.40;;;;;;4825198;29;20449;-85
2023/09/23 06:18:34;;;;;;;6.00;2.70;;;538.50;2406.40;;;;;;4826610;29;20054;-87
2023/09/23 06:21:01;;;;;;;6.80;2.53;;;538.50;2406.40;;;;;;4825377;29;20042;-85
2023/09/23 06:23:27;;;;;;;4.90;1.65;;;538.30;2406.40;;;;;;4831426;29;20039;-85
2023/09/23 06:26:00;;;;;;;5.05;1.70;;;538.20;2406.40;;;;;;4823343;29;20034;-86
2023/09/23 06:28:26;;;;;;;4.20;1.83;;;538.00;2406.40;;;;;;4813290;29;20031;-86
2023/09/23 06:30:53;;;;;;;3.95;1.70;;;537.90;2406.40;;;;;;4825695;29;20037;-85
2023/09/23 06:33:21;;;;;;;5.18;1.73;;;537.80;2406.40;;;;;;4824498;29;20031;-86
2023/09/23 06:35:48;;;;;;;6.43;1.90;;;537.70;2406.40;;;;;;4808981;29;20030;-85
2023/09/23 06:38:14;;;;;;;4.13;1.70;;;537.60;2406.40;;;;;;4820629;29;20038;-85
2023/09/23 06:40:40;;;;;;;5.28;1.73;;;;;;;;;;4807730;29;20442;-83
2023/09/23 06:43:06;;;;;;;5.03;1.70;;;;;;;;;;4809415;29;20050;-85
2023/09/23 06:45:32;;;;;;;4.45;2.50;;;;;;;;;;4823813;29;20468;-87
2023/09/23 06:47:58;;;;;;;4.28;2.35;;;;;;;;;;4811767;29;20104;-88
2023/09/23 06:50:25;;;;;;;5.32;1.98;;;;;;;;;;4821174;29;20026;-87
2023/09/23 06:52:51;;;;;;;3.80;1.67;;;;;;;;;;4837264;29;20042;-89
2023/09/23 06:55:17;;;;;;;6.60;2.20;;;512.90;2380.80;;;;;;4835864;29;20516;-89
2023/09/23 06:57:43;;;;;;;4.95;2.10;;;512.60;2380.80;;;;;;4820261;29;20090;-89
2023/09/23 07:00:11;;;;;;;6.50;2.60;;;512.50;2380.80;;;;;;4827180;29;20455;-88
2023/09/23 07:02:37;;;;;;;6.78;3.45;;;512.70;2380.80;;;;;;4827626;29;20038;-86
2023/09/23 07:05:03;;;;;;;8.80;3.20;;;512.70;2380.80;;;;;;4823995;29;20041;-88
2023/09/23 07:07:28;;;;;;;6.50;3.10;;;512.80;2380.80;;;;;;4827136;29;20042;-90
2023/09/23 07:09:57;;;;;;;6.93;2.70;;;512.90;2380.80;;;;;;4833150;29;20504;-92
2023/09/23 07:12:23;;;;;;;7.93;3.45;;;512.80;2380.80;;;;;;4824719;29;20046;-89
2023/09/23 07:14:49;;;;;;;6.55;3.30;;;512.90;2380.80;;;;;;4828880;29;20046;-91
2023/09/23 07:17:15;;;;;;;6.60;2.17;;;512.80;2380.80;;;;;;4829872;29;20049;-88
2023/09/23 07:19:41;;;;;;;5.22;2.28;;;512.80;2380.80;;;;;;4829308;29;20165;-89
2023/09/23 07:22:09;;;;;;;7.15;2.28;;;512.90;2380.80;;;;;;4828705;29;20077;-88
2023/09/23 07:24:35;;;;;;;16.50;9.70;;;537.60;2406.40;;;;;;4828514;29;20036;-89
2023/09/23 07:30:23;;;;;;;8.10;3.72;;;537.70;2406.40;;;;;;4829212;29;20118;-88
2023/09/23 07:32:52;;;;;;;;;;;537.60;2406.40;;;;;;4827140;29;20150;-87
2023/09/23 07:35:17;;;;;;;5.78;2.40;;;512.70;2380.80;;;;;;4820659;29;19969;-89
2023/09/23 07:37:43;;;;;;;7.72;4.35;;;512.70;2380.80;;;;;;4814066;29;20039;-88
2023/09/23 07:40:09;;;;;;;4.95;2.38;;;512.70;2380.80;;;;;;4813000;29;20050;-88
2023/09/23 07:42:37;;;;;;;5.65;2.40;;;512.90;2380.80;;;;;;4818645;29;20034;-88
2023/09/23 07:45:02;;;;;;;6.28;2.20;;;537.60;2406.40;;;;;;4827448;29;20114;-89
2023/09/23 07:47:28;;;;;;;15.23;8.52;;;538.00;2406.40;;;;;;4822677;29;20022;-88
2023/09/23 07:49:55;;;;;;;21.77;11.70;;;538.00;2406.40;;;;;;4817029;29;20038;-89
2023/09/23 07:52:21;;;;;;;13.63;6.93;;;538.00;2406.40;;;;;;4810333;29;20085;-88
2023/09/23 07:54:46;;;;;;;6.82;3.50;;;538.00;2406.40;;;;;;4811086;29;20543;-89
2023/09/23 07:57:12;;;;;;;5.57;2.47;;;538.10;2406.40;;;;;;4811466;29;20104;-88
2023/09/23 07:59:38;;;;;;;7.47;2.50;;;538.30;2406.40;;;;;;4823604;29;20417;-88
2023/09/23 08:02:04;;;;;;;5.13;2.00;;;538.50;2406.40;;;;;;4820421;29;20038;-87
2023/09/23 08:04:30;;;;;;;9.45;2.20;;;563.30;2432.00;;;;;;4810016;29;20046;-88
2023/09/23 08:06:56;;;;;;;11.23;6.78;;;564.00;2432.00;;;;;;4818736;29;20137;-89
2023/09/23 08:09:24;;;;;;;6.88;3.38;;;564.00;2432.00;;;;;;4817395;29;20059;-88
2023/09/23 08:15:15;;;;;;;4.65;1.60;;;589.30;2432.00;;;;;;4809954;29;20385;-87
2023/09/23 08:17:42;;;;;;;4.30;2.40;;;589.40;2432.00;;;;;;4814186;29;20026;-89
2023/09/23 08:20:18;;;;;;;6.68;2.80;;;589.10;2432.00;;;;;;4826395;29;20035;-89
2023/09/23 08:22:48;;;;;;;6.70;2.10;;;;;;;;;;4809870;29;20030;-88
2023/09/23 08:25:15;;;;;;;5.25;1.80;;;614.70;2432.00;;;;;;4808660;29;20088;-88
2023/09/23 08:27:59;;;;;;;5.25;1.83;;;614.60;2432.00;;;;;;4807773;29;20046;-89
2023/09/23 08:30:25;;;;;;;3.90;2.00;;;614.80;2432.00;;;;;;4819578;29;20038;-88
2023/09/23 08:32:53;;;;;;;5.20;2.90;;;640.00;2432.00;;;;;;4826504;29;20545;-89
2023/09/23 08:35:21;;;;;;;5.25;1.80;;;640.60;2432.00;;;;;;4827755;29;20042;-88
2023/09/23 08:37:48;;;;;;;4.50;1.75;;;640.60;2432.00;;;;;;4825879;29;20042;-88
2023/09/23 08:40:19;;;;;;;6.38;2.15;;;640.10;2432.00;;;;;;4827518;29;20038;-88
2023/09/23 08:46:09;;;;;;;3.40;1.42;;;614.70;2432.00;;;;;;4809479;29;20090;-88
2023/09/23 08:48:38;;;;;;;3.70;1.60;;;614.50;2432.00;;;;;;4813052;29;20054;-89
2023/09/23 08:51:06;;;;;;;2.95;1.58;;;614.50;2432.00;;;;;;4843886;29;20034;-87
2023/09/23 08:53:39;;;;;;;2.63;1.33;;;589.70;2432.00;;;;;;4836515;29;20026;-87
2023/09/23 08:56:29;;;;;;;3.25;1.42;;;589.60;2432.00;;;;;;4827519;29;20038;-87
2023/09/23 08:58:54;;;;;;;3.63;1.50;;;589.40;2432.00;;;;;;4827227;29;20034;-90
2023/09/23 09:01:21;;;;;;;4.30;1.50;;;;;;;;;;4827425;29;20041;-90
2023/09/23 09:03:48;;;;;;;5.65;1.48;;;;;;;;;;4830235;29;20042;-91
2023/09/23 09:06:27;;;;;;;3.10;1.30;;;;;;;;;;4828646;29;20049;-90
2023/09/23 09:08:53;;;;;;;4.35;1.70;;;;;;;;;;4828286;29;20067;-90
2023/09/23 09:11:21;;;;;;;4.10;2.05;;;;;;;;;;4830091;29;20023;-90
2023/09/23 09:13:47;;;;;;;5.57;1.52;;;;;;;;;;4826774;29;20063;-90
2023/09/23 09:16:14;;;;;;;3.58;1.60;;;;;;;;;;4826475;29;20038;-92
2023/09/23 09:18:40;;;;;;;7.40;2.20;;;;;;;;;;4827688;29;20053;-93
2023/09/23 09:21:08;;;;;;;6.93;3.70;;;;;;;;;;4831204;29;20441;-93
2023/09/23 09:23:38;;;;;;;10.63;6.15;;;;;;;;;;4833840;29;20038;-90
2023/09/23 09:26:04;;;;;;;7.85;4.40;;;;;;;;;;4827439;29;20101;-91
2023/09/23 09:28:33;;;;;;;5.95;3.00;;;;;;;;;;4825157;29;20050;-91
2023/09/23 09:30:59;;;;;;;4.57;2.58;;;;;;;;;;4827847;29;20026;-90
2023/09/23 09:33:27;;;;;;;8.25;2.70;;;;;;;;;;4828383;29;20083;-91
2023/09/23 09:35:57;;;;;;;5.00;2.58;;;589.40;2432.00;;;;;;4827425;29;20113;-91
2023/09/23 09:38:27;;;;;;;6.15;3.00;;;589.20;2432.00;;;;;;4827360;29;20134;-90
2023/09/23 09:41:00;;;;;;;6.63;2.90;;;;;;;;;;4826431;29;20034;-90
2023/09/23 09:43:30;;;;;;;6.00;2.40;;;;;;;;;;4831919;29;20018;-89
2023/09/23 09:45:59;;;;;;;6.75;3.15;;;614.40;2432.00;;;;;;4833005;29;20121;-91
2023/09/23 09:48:28;;;;;;;5.88;3.10;;;589.60;2432.00;;;;;;4820947;29;20397;-89
2023/09/23 09:50:55;;;;;;;6.50;3.05;;;614.40;2432.00;;;;;;4808651;29;20042;-89
2023/09/23 09:53:21;;;;;;;5.72;2.60;;;589.60;2432.00;;;;;;4812972;29;20030;-90
2023/09/23 09:55:47;;;;;;;4.88;2.30;;;589.70;2432.00;;;;;;4826969;29;20035;-90
2023/09/23 09:58:13;;;;;;;5.07;2.50;;;589.70;2432.00;;;;;;4827546;29;20497;-91
2023/09/23 10:00:42;;;;;;;5.82;2.42;;;589.70;2432.00;;;;;;4826001;29;20038;-90
2023/09/23 10:03:11;;;;;;;6.20;3.80;;;589.50;2432.00;;;;;;4826942;29;20034;-89
2023/09/23 10:05:50;;;;;;;7.20;3.72;;;589.40;2432.00;;;;;;4827028;29;20030;-88
2023/09/23 10:08:24;;;;;;;5.15;3.17;;;589.20;2432.00;;;;;;4827675;29;20046;-89
2023/09/23 10:10:58;;;;;;;5.45;2.78;;;589.20;2432.00;;;;;;4828259;29;20413;-89
2023/09/23 10:16:59;;;;;;;5.25;2.60;;;589.20;2432.00;;;;;;4827967;29;20424;-88
2023/09/23 10:19:29;;;;;;;5.97;2.80;;;589.20;2432.00;;;;;;4826564;29;20504;-90
2023/09/23 10:22:21;;;;;;;4.28;1.70;;;589.10;2432.00;;;;;;4827656;29;20373;-88
2023/09/23 10:24:59;;;;;;;4.10;1.75;;;589.00;2432.00;;;;;;4826347;29;20377;-88
2023/09/23 10:27:26;;;;;;;6.13;2.70;;;589.00;2432.00;;;;;;4826476;29;20053;-88
2023/09/23 10:29:56;;;;;;;3.15;1.63;;;588.90;2432.00;;;;;;4827353;29;20034;-88
2023/09/23 10:32:26;;;;;;;3.50;1.50;;;589.00;2432.00;;;;;;4826742;29;20381;-88
2023/09/23 10:34:55;;;;;;;3.92;1.83;;;589.00;2432.00;;;;;;4827820;29;20461;-88
2023/09/23 10:37:31;;;;;;;5.93;2.05;;;588.90;2432.00;;;;;;4827152;29;20440;-88
2023/09/23 10:40:14;;;;;;;5.63;2.20;;;588.90;2432.00;;;;;;4826652;29;20038;-88
2023/09/23 10:42:42;;;;;;;4.90;2.03;;;588.90;2432.00;;;;;;4830375;29;20373;-87
2023/09/23 10:45:10;;;;;;;9.65;5.70;;;588.80;2432.00;;;;;;4829716;29;20346;-88
2023/09/23 10:47:37;;;;;;;5.47;2.13;;;564.10;2432.00;;;;;;4830141;29;20411;-87
2023/09/23 10:50:05;;;;;;;4.43;2.10;;;564.10;2432.00;;;;;;4831506;29;20026;-87
2023/09/23 10:52:34;;;;;;;4.80;2.28;;;564.10;2432.00;;;;;;4828782;29;20496;-86
2023/09/23 10:55:00;;;;;;;6.80;2.38;;;588.80;2432.00;;;;;;4829071;29;20362;-87
2023/09/23 10:57:32;;;;;;;4.18;2.20;;;564.10;2432.00;;;;;;4830066;29;20110;-87
2023/09/23 10:59:59;;;;;;;3.95;2.10;;;564.10;2432.00;;;;;;4829068;29;20036;-86
2023/09/23 11:02:31;;;;;;;8.00;2.35;;;564.00;2432.00;;;;;;4829792;29;20354;-88
2023/09/23 11:04:57;;;;;;;4.63;2.00;;;564.10;2432.00;;;;;;4831358;29;20343;-87
2023/09/23 11:07:24;;;;;;;3.55;1.85;;;588.80;2432.00;;;;;;4829888;29;20462;-87
2023/09/23 11:09:53;;;;;;;5.22;2.05;;;564.00;2432.00;;;;;;4829327;29;20381;-87
2023/09/23 11:12:19;;;;;;;4.60;1.60;;;588.90;2432.00;;;;;;4829913;29;20034;-87
2023/09/23 11:14:47;;;;;;;2.08;1.33;;;588.90;2432.00;;;;;;4830094;29;20469;-88
2023/09/23 11:17:29;;;;;;;5.45;1.83;;;588.90;2432.00;;;;;;4829740;29;20365;-87
2023/09/23 11:19:57;;;;;;;3.88;1.30;;;588.80;2432.00;;;;;;4829797;29;20354;-86
2023/09/23 11:22:25;;;;;;;4.05;1.40;;;588.90;2432.00;;;;;;4828578;29;20536;-87
2023/09/23 11:24:51;;;;;;;3.88;1.50;;;588.90;2432.00;;;;;;4829734;29;20360;-87
2023/09/23 11:27:17;;;;;;;4.15;1.65;;;588.80;2432.00;;;;;;4827454;29;20474;-87
2023/09/23 11:29:44;;;;;;;4.40;1.33;;;564.10;2432.00;;;;;;4828418;29;20360;-85
2023/09/23 11:32:11;;;;;;;5.70;1.73;;;564.00;2432.00;;;;;;4826446;29;20372;-86
2023/09/23 11:34:37;;;;;;;4.32;1.60;;;564.00;2432.00;;;;;;4828340;29;20414;-87
2023/09/23 11:37:04;;;;;;;3.88;1.60;;;563.90;2432.00;;;;;;4830233;29;20346;-86
2023/09/23 11:39:37;;;;;;;4.32;1.70;;;563.70;2432.00;;;;;;4859597;29;20350;-87
2023/09/23 11:42:04;;;;;;;3.88;1.70;;;563.80;2432.00;;;;;;4829369;29;20369;-84
2023/09/23 11:44:30;;;;;;;2.45;1.50;;;563.90;2432.00;;;;;;4828898;29;20381;-83
2023/09/23 11:46:57;;;;;;;4.97;2.13;;;563.70;2432.00;;;;;;4828859;29;20441;-86
2023/09/23 11:49:27;;;;;;;4.55;2.60;;;563.80;2432.00;;;;;;4829435;29;20377;-85
2023/09/23 11:51:56;;;;;;;5.97;3.55;;;563.90;2278.40;;;;;;4829779;29;20422;-83
2023/09/23 11:54:24;;;;;;;10.43;7.30;;;563.70;2099.20;;;;;;4829803;29;20377;-83
2023/09/23 11:56:51;;;;;;;6.47;3.47;;;563.60;2304.00;;;;;;4829253;29;20039;-85
2023/09/23 11:59:20;;;;;;;5.53;2.70;;;563.70;2432.00;;;;;;4831034;29;20501;-86
2023/09/23 12:01:48;;;;;;;5.15;2.08;;;563.60;2432.00;;;;;;4828478;29;20533;-88
2023/09/23 12:04:15;;;;;;;2.95;1.63;;;;;;;;;;4830587;29;20034;-87
2023/09/23 12:06:41;;;;;;;3.05;1.50;;;;;;;;;;4831058;29;20050;-90
2023/09/23 12:09:09;;;;;;;3.83;1.65;;;;;;;;;;4831005;29;20379;-91
2023/09/23 12:11:38;;;;;;;5.25;1.77;;;;;;;;;;4831843;29;20043;-90
2023/09/23 12:17:10;;;;;;;;;;;563.70;2432.00;;;;;;4832610;29;20377;-88
2023/09/23 12:19:36;;;;;;;5.10;1.60;;;563.50;2432.00;;;;;;4831625;29;20282;-91
2023/09/23 12:22:02;;;;;;;5.97;1.77;;;563.70;2432.00;;;;;;4831490;29;20034;-91
2023/09/23 12:24:36;;;;;;;6.70;1.77;;;564.00;2432.00;;;;;;4831545;29;20030;-92
2023/09/23 12:27:06;;;;;;;6.05;2.13;;;564.00;2432.00;;;;;;4831976;29;20373;-91
2023/09/23 12:29:33;;;;;;;3.60;1.70;;;588.80;2432.00;;;;;;4831339;29;20034;-91
2023/09/23 12:32:00;;;;;;;4.32;1.73;;;588.80;2432.00;;;;;;4830862;29;20558;-92
2023/09/23 12:34:27;;;;;;;4.30;2.10;;;589.00;2432.00;;;;;;4830198;29;20465;-87
2023/09/23 12:36:59;;;;;;;13.15;6.28;;;589.00;2432.00;;;;;;4828488;29;20434;-90
2023/09/23 12:39:26;;;;;;;7.65;4.03;;;589.00;2432.00;;;;;;4829549;29;20492;-88
2023/09/23 12:41:54;;;;;;;6.47;3.72;;;589.20;2432.00;;;;;;4833873;29;20434;-89
2023/09/23 12:47:46;;;;;;;5.90;3.60;;;589.50;2432.00;;;;;;4830047;29;20033;-90
2023/09/23 12:50:12;;;;;;;13.07;6.82;;;589.60;2432.00;;;;;;4830766;29;20029;-91
2023/09/23 12:52:39;;;;;;;7.82;3.83;;;589.60;2432.00;;;;;;4829639;29;20035;-91
2023/09/23 12:55:06;;;;;;;3.95;2.10;;;589.50;2432.00;;;;;;4828817;29;20365;-92
2023/09/23 12:57:35;;;;;;;4.55;2.05;;;589.20;2432.00;;;;;;4813723;29;20430;-91
2023/09/23 13:00:02;;;;;;;6.38;1.98;;;589.20;2432.00;;;;;;4830056;29;20042;-92